sensor_id;sensor_type;location;lat;lon;timestamp;pressure;altitude;pressure_sealevel;temperature;humidity
44127;BME280;29786;50.798;7.302;2023-02-17T00:00:27;99780;;;9.29;100
44127;BME280;29786;50.798;7.302;2023-02-17T00:04:22;99780;;;9.32;100
44127;BME280;29786;50.798;7.302;2023-02-17T00:09:23;99770;;;9.37;100
44127;BME280;29786;50.798;7.302;2023-02-17T00:14:31;99770;;;9.38;100
44127;BME280;29786;50.798;7.302;2023-02-17T00:17:20;99760;;;9.42;100
44127;BME280;29786;50.798;7.302;2023-02-17T00:22:21;99760;;;9.41;100
44127;BME280;29786;50.798;7.302;2023-02-17T00:27:22;99760;;;9.47;100
44127;BME280;29786;50.798;7.302;2023-02-17T00:32:31;99750;;;9.49;100
44127;BME280;29786;50.798;7.302;2023-02-17T00:35:20;99750;;;9.52;100
44127;BME280;29786;50.798;7.302;2023-02-17T00:40:25;99750;;;9.57;100
44127;BME280;29786;50.798;7.302;2023-02-17T00:44:28;99750;;;9.66;100
44127;BME280;29786;50.798;7.302;2023-02-17T00:48:23;99760;;;9.63;100
44127;BME280;29786;50.798;7.302;2023-02-17T00:53:23;99750;;;9.68;100
44127;BME280;29786;50.798;7.302;2023-02-17T00:58:24;99740;;;9.72;100
44127;BME280;29786;50.798;7.302;2023-02-17T01:02:27;99740;;;9.77;100
44127;BME280;29786;50.798;7.302;2023-02-17T01:06:24;99740;;;9.68;100
44127;BME280;29786;50.798;7.302;2023-02-17T01:11:25;99740;;;9.72;100
44127;BME280;29786;50.798;7.302;2023-02-17T01:16:28;99740;;;9.77;100
44127;BME280;29786;50.798;7.302;2023-02-17T01:20:22;99730;;;9.75;100
44127;BME280;29786;50.798;7.302;2023-02-17T01:25:23;99730;;;9.75;100
44127;BME280;29786;50.798;7.302;2023-02-17T01:29:22;99720;;;9.79;100
44127;BME280;29786;50.798;7.302;2023-02-17T01:34:23;99710;;;9.78;100
44127;BME280;29786;50.798;7.302;2023-02-17T01:39:28;99700;;;9.79;100
44127;BME280;29786;50.798;7.302;2023-02-17T01:43:23;99690;;;9.82;100
44127;BME280;29786;50.798;7.302;2023-02-17T01:48:27;99690;;;9.85;100
44127;BME280;29786;50.798;7.302;2023-02-17T01:52:23;99690;;;9.84;100
44127;BME280;29786;50.798;7.302;2023-02-17T01:56:26;99680;;;9.84;100
44127;BME280;29786;50.798;7.302;2023-02-17T01:57:03;99770;;;9;100
44127;BME280;29786;50.798;7.302;2023-02-17T01:59:19;99680;;;9.85;100
44127;BME280;29786;50.798;7.302;2023-02-17T02:04:29;99680;;;9.84;100
44127;BME280;29786;50.798;7.302;2023-02-17T02:08:22;99660;;;9.88;100
44127;BME280;29786;50.798;7.302;2023-02-17T02:13:23;99660;;;9.92;100
44127;BME280;29786;50.798;7.302;2023-02-17T02:17:34;99660;;;9.88;100
44127;BME280;29786;50.798;7.302;2023-02-17T02:21:01;99690;;;9.84;100
44127;BME280;29786;50.798;7.302;2023-02-17T02:29:29;99650;;;9.95;100
44127;BME280;29786;50.798;7.302;2023-02-17T02:34:21;99650;;;9.97;100
44127;BME280;29786;50.798;7.302;2023-02-17T02:39:31;99650;;;9.99;100
44127;BME280;29786;50.798;7.302;2023-02-17T02:43:24;99650;;;9.96;100
44127;BME280;29786;50.798;7.302;2023-02-17T02:48:25;99650;;;10.06;100
44127;BME280;29786;50.798;7.302;2023-02-17T02:52:31;99660;;;10;100
44127;BME280;29786;50.798;7.302;2023-02-17T02:56:34;99640;;;10.01;100
44127;BME280;29786;50.798;7.302;2023-02-17T03:01:28;99650;;;9.99;100
44127;BME280;29786;50.798;7.302;2023-02-17T03:06:26;99640;;;9.97;100
44127;BME280;29786;50.798;7.302;2023-02-17T03:10:23;99640;;;9.99;100
44127;BME280;29786;50.798;7.302;2023-02-17T03:15:25;99640;;;10;100
44127;BME280;29786;50.798;7.302;2023-02-17T03:20:25;99630;;;9.97;100
44127;BME280;29786;50.798;7.302;2023-02-17T03:24:19;99620;;;10.01;100
44127;BME280;29786;50.798;7.302;2023-02-17T03:24:56;99580;;;9.37;100
44127;BME280;29786;50.798;7.302;2023-02-17T03:29:24;99620;;;9.97;100
44127;BME280;29786;50.798;7.302;2023-02-17T03:33:19;99620;;;10;100
44127;BME280;29786;50.798;7.302;2023-02-17T03:38:24;99610;;;10.02;100
44127;BME280;29786;50.798;7.302;2023-02-17T03:42:19;99610;;;10.07;100
44127;BME280;29786;50.798;7.302;2023-02-17T03:47:19;99610;;;10.09;100
44127;BME280;29786;50.798;7.302;2023-02-17T03:52:20;99610;;;10.14;100
44127;BME280;29786;50.798;7.302;2023-02-17T03:52:57;99540;;;9.45;100
44127;BME280;29786;50.798;7.302;2023-02-17T03:56:19;99620;;;10.18;100
44127;BME280;29786;50.798;7.302;2023-02-17T03:56:56;99620;;;10.14;100
44127;BME280;29786;50.798;7.302;2023-02-17T04:00:22;99610;;;10.16;100
44127;BME280;29786;50.798;7.302;2023-02-17T04:05:23;99610;;;10.2;100
44127;BME280;29786;50.798;7.302;2023-02-17T04:10:24;99620;;;10.18;100
44127;BME280;29786;50.798;7.302;2023-02-17T04:14:19;99630;;;10.13;100
44127;BME280;29786;50.798;7.302;2023-02-17T04:19:19;99630;;;10.17;100
44127;BME280;29786;50.798;7.302;2023-02-17T04:23:18;99620;;;10.17;100
44127;BME280;29786;50.798;7.302;2023-02-17T04:28:19;99630;;;10.16;100
44127;BME280;29786;50.798;7.302;2023-02-17T04:28:56;99530;;;9.64;100
44127;BME280;29786;50.798;7.302;2023-02-17T04:33:24;99630;;;10.2;100
44127;BME280;29786;50.798;7.302;2023-02-17T04:37:27;99640;;;10.17;100
44127;BME280;29786;50.798;7.302;2023-02-17T04:41:22;99640;;;10.2;100
44127;BME280;29786;50.798;7.302;2023-02-17T04:45:25;99640;;;10.2;100
44127;BME280;29786;50.798;7.302;2023-02-17T04:49:24;99630;;;10.2;100
44127;BME280;29786;50.798;7.302;2023-02-17T04:54:33;99630;;;10.18;100
44127;BME280;29786;50.798;7.302;2023-02-17T04:57:22;99630;;;10.21;100
44127;BME280;29786;50.798;7.302;2023-02-17T05:01:21;99630;;;10.22;100
44127;BME280;29786;50.798;7.302;2023-02-17T05:06:21;99630;;;10.21;100
44127;BME280;29786;50.798;7.302;2023-02-17T05:11:26;99630;;;10.22;100
44127;BME280;29786;50.798;7.302;2023-02-17T05:15:21;99620;;;10.18;100
44127;BME280;29786;50.798;7.302;2023-02-17T05:20:26;99610;;;10.22;100
44127;BME280;29786;50.798;7.302;2023-02-17T05:24:21;99620;;;10.2;100
44127;BME280;29786;50.798;7.302;2023-02-17T05:28:20;99620;;;10.14;100
44127;BME280;29786;50.798;7.302;2023-02-17T05:33:21;99620;;;10.07;100
44127;BME280;29786;50.798;7.302;2023-02-17T05:38:21;99610;;;10.1;100
44127;BME280;29786;50.798;7.302;2023-02-17T05:43:30;99620;;;10.1;100
44127;BME280;29786;50.798;7.302;2023-02-17T05:46:19;99610;;;10.17;100
44127;BME280;29786;50.798;7.302;2023-02-17T05:51:20;99620;;;10.18;100
44127;BME280;29786;50.798;7.302;2023-02-17T05:51:57;99600;;;10.02;100
44127;BME280;29786;50.798;7.302;2023-02-17T05:55:19;99610;;;10.18;100
44127;BME280;29786;50.798;7.302;2023-02-17T05:55:56;99610;;;10.2;100
44127;BME280;29786;50.798;7.302;2023-02-17T06:00:24;99610;;;10.17;100
44127;BME280;29786;50.798;7.302;2023-02-17T06:04:19;99600;;;10.18;100
44127;BME280;29786;50.798;7.302;2023-02-17T06:09:24;99610;;;10.18;100
44127;BME280;29786;50.798;7.302;2023-02-17T06:13:19;99610;;;10.21;100
44127;BME280;29786;50.798;7.302;2023-02-17T06:18:19;99600;;;10.26;100
44127;BME280;29786;50.798;7.302;2023-02-17T06:23:28;99600;;;10.28;100
44127;BME280;29786;50.798;7.302;2023-02-17T06:27:23;99590;;;10.35;100
44127;BME280;29786;50.798;7.302;2023-02-17T06:32:28;99610;;;10.38;100
44127;BME280;29786;50.798;7.302;2023-02-17T06:36:23;99600;;;10.36;100
44127;BME280;29786;50.798;7.302;2023-02-17T06:41:28;99620;;;10.4;100
44127;BME280;29786;50.798;7.302;2023-02-17T06:45:23;99610;;;10.43;100
44127;BME280;29786;50.798;7.302;2023-02-17T06:50:28;99610;;;10.43;100
44127;BME280;29786;50.798;7.302;2023-02-17T06:54:22;99610;;;10.48;100
44127;BME280;29786;50.798;7.302;2023-02-17T06:58:21;99620;;;10.47;100
44127;BME280;29786;50.798;7.302;2023-02-17T07:03:22;99620;;;10.45;100
44127;BME280;29786;50.798;7.302;2023-02-17T07:07:21;99610;;;10.48;100
44127;BME280;29786;50.798;7.302;2023-02-17T07:12:22;99620;;;10.45;100
44127;BME280;29786;50.798;7.302;2023-02-17T07:17:23;99630;;;10.47;100
44127;BME280;29786;50.798;7.302;2023-02-17T07:21:26;99630;;;10.47;100
44127;BME280;29786;50.798;7.302;2023-02-17T07:25:20;99610;;;10.48;100
44127;BME280;29786;50.798;7.302;2023-02-17T07:30:21;99620;;;10.43;100
44127;BME280;29786;50.798;7.302;2023-02-17T07:34:20;99630;;;10.48;100
44127;BME280;29786;50.798;7.302;2023-02-17T07:39:21;99620;;;10.52;100
44127;BME280;29786;50.798;7.302;2023-02-17T07:43:20;99620;;;10.51;100
44127;BME280;29786;50.798;7.302;2023-02-17T07:48:21;99620;;;10.52;100
44127;BME280;29786;50.798;7.302;2023-02-17T07:53:26;99630;;;10.58;100
44127;BME280;29786;50.798;7.302;2023-02-17T07:57:25;99620;;;10.61;100
44127;BME280;29786;50.798;7.302;2023-02-17T08:01:23;99620;;;10.64;100
44127;BME280;29786;50.798;7.302;2023-02-17T08:06:21;99620;;;10.78;100
44127;BME280;29786;50.798;7.302;2023-02-17T08:10:19;99630;;;10.8;100
44127;BME280;29786;50.798;7.302;2023-02-17T08:10:59;99520;;;9.68;100
44127;BME280;29786;50.798;7.302;2023-02-17T08:14:23;99620;;;10.83;100
44127;BME280;29786;50.798;7.302;2023-02-17T08:18:25;99620;;;10.88;100
44127;BME280;29786;50.798;7.302;2023-02-17T08:22:20;99620;;;10.95;100
44127;BME280;29786;50.798;7.302;2023-02-17T08:22:57;99540;;;10.25;100
44127;BME280;29786;50.798;7.302;2023-02-17T08:26:27;99630;;;10.97;100
44127;BME280;29786;50.798;7.302;2023-02-17T08:30:22;99630;;;11.03;100
44127;BME280;29786;50.798;7.302;2023-02-17T08:34:25;99620;;;10.98;100
44127;BME280;29786;50.798;7.302;2023-02-17T08:38:20;99630;;;11.03;100
44127;BME280;29786;50.798;7.302;2023-02-17T08:42:19;99630;;;11.19;100
44127;BME280;29786;50.798;7.302;2023-02-17T08:47:20;99650;;;11.23;100
44127;BME280;29786;50.798;7.302;2023-02-17T08:52:20;99650;;;11.28;100
44127;BME280;29786;50.798;7.302;2023-02-17T08:57:29;99650;;;11.34;100
44127;BME280;29786;50.798;7.302;2023-02-17T08:58:07;99620;;;10.95;100
44127;BME280;29786;50.798;7.302;2023-02-17T09:00:23;99650;;;11.51;100
44127;BME280;29786;50.798;7.302;2023-02-17T09:05:23;99650;;;11.7;100
44127;BME280;29786;50.798;7.302;2023-02-17T09:10:28;99640;;;11.8;100
44127;BME280;29786;50.798;7.302;2023-02-17T09:14:27;99650;;;11.83;100
44127;BME280;29786;50.798;7.302;2023-02-17T09:17:20;99640;;;11.97;100
44127;BME280;29786;50.798;7.302;2023-02-17T09:17:57;99650;;;11.45;100
44127;BME280;29786;50.798;7.302;2023-02-17T09:21:19;99630;;;12.24;100
44127;BME280;29786;50.798;7.302;2023-02-17T09:21:56;99630;;;12.16;100
44127;BME280;29786;50.798;7.302;2023-02-17T09:25:22;99630;;;12.52;100
44127;BME280;29786;50.798;7.302;2023-02-17T09:30:23;99630;;;12.68;100
44127;BME280;29786;50.798;7.302;2023-02-17T09:35:24;99630;;;13.06;100
44127;BME280;29786;50.798;7.302;2023-02-17T09:39:19;99630;;;13;100
44127;BME280;29786;50.798;7.302;2023-02-17T09:44:32;99640;;;12.92;100
44127;BME280;29786;50.798;7.302;2023-02-17T09:48:24;99640;;;13.03;100
44127;BME280;29786;50.798;7.302;2023-02-17T09:53:33;99640;;;13.11;100
44127;BME280;29786;50.798;7.302;2023-02-17T09:58:26;99630;;;13.36;100
44127;BME280;29786;50.798;7.302;2023-02-17T10:02:30;99640;;;13.37;100
44127;BME280;29786;50.798;7.302;2023-02-17T10:07:26;99640;;;13.58;100
44127;BME280;29786;50.798;7.302;2023-02-17T10:11:22;99640;;;13.59;100
44127;BME280;29786;50.798;7.302;2023-02-17T10:16:22;99650;;;13.89;100
44127;BME280;29786;50.798;7.302;2023-02-17T10:21:24;99650;;;13.73;100
44127;BME280;29786;50.798;7.302;2023-02-17T10:22:01;99550;;;11.74;100
44127;BME280;29786;50.798;7.302;2023-02-17T10:25:23;99650;;;13.98;100
44127;BME280;29786;50.798;7.302;2023-02-17T10:27:06;99640;;;13.89;100
44127;BME280;29786;50.798;7.302;2023-02-17T10:29:22;99650;;;14.23;100
44127;BME280;29786;50.798;7.302;2023-02-17T10:39:54;99640;;;14.49;100
44127;BME280;29786;50.798;7.302;2023-02-17T10:39:57;99640;;;14.54;100
44127;BME280;29786;50.798;7.302;2023-02-17T10:40:34;99610;;;13.89;100
44127;BME280;29786;50.798;7.302;2023-02-17T10:41:12;99790;;;8.43;100
44127;BME280;29786;50.798;7.302;2023-02-17T10:43:27;99640;;;14.57;100
44127;BME280;29786;50.798;7.302;2023-02-17T10:46:36;99640;;;14.61;100
44127;BME280;29786;50.798;7.302;2023-02-17T10:50:20;99640;;;14.68;100
44127;BME280;29786;50.798;7.302;2023-02-17T10:55:40;99640;;;14.83;100
44127;BME280;29786;50.798;7.302;2023-02-17T10:59:20;99630;;;14.97;100
44127;BME280;29786;50.798;7.302;2023-02-17T11:04:19;99630;;;15.06;100
44127;BME280;29786;50.798;7.302;2023-02-17T11:08:29;99640;;;15.38;100
44127;BME280;29786;50.798;7.302;2023-02-17T11:12:23;99630;;;15.78;100
44127;BME280;29786;50.798;7.302;2023-02-17T11:17:27;99620;;;15.5;100
44127;BME280;29786;50.798;7.302;2023-02-17T11:22:26;99620;;;15.56;100
44127;BME280;29786;50.798;7.302;2023-02-17T11:26:56;99620;;;15.27;100
44127;BME280;29786;50.798;7.302;2023-02-17T11:31:21;99620;;;14.94;100
44127;BME280;29786;50.798;7.302;2023-02-17T11:36:24;99590;;;14.84;100
44127;BME280;29786;50.798;7.302;2023-02-17T11:41:20;99600;;;14.86;100
44127;BME280;29786;50.798;7.302;2023-02-17T11:46:28;99610;;;14.82;100
44127;BME280;29786;50.798;7.302;2023-02-17T11:55:22;99590;;;14.87;100
44127;BME280;29786;50.798;7.302;2023-02-17T11:59:22;99590;;;15;100
44127;BME280;29786;50.798;7.302;2023-02-17T12:04:28;99600;;;14.89;100
44127;BME280;29786;50.798;7.302;2023-02-17T12:08:31;99590;;;15.04;100
44127;BME280;29786;50.798;7.302;2023-02-17T12:08:59;99650;;;14.66;100
44127;BME280;29786;50.798;7.302;2023-02-17T12:12:25;99580;;;15.14;100
44127;BME280;29786;50.798;7.302;2023-02-17T12:17:25;99580;;;15.24;100
44127;BME280;29786;50.798;7.302;2023-02-17T12:22:29;99560;;;15.21;100
44127;BME280;29786;50.798;7.302;2023-02-17T12:27:39;99570;;;15.32;100
44127;BME280;29786;50.798;7.302;2023-02-17T12:32:36;99580;;;15.31;100
44127;BME280;29786;50.798;7.302;2023-02-17T12:36:21;99580;;;15.28;100
44127;BME280;29786;50.798;7.302;2023-02-17T12:41:22;99590;;;15.32;100
44127;BME280;29786;50.798;7.302;2023-02-17T12:45:22;99590;;;15.42;100
44127;BME280;29786;50.798;7.302;2023-02-17T12:50:23;99560;;;15.94;100
44127;BME280;29786;50.798;7.302;2023-02-17T12:55:24;99560;;;15.77;98.35
44127;BME280;29786;50.798;7.302;2023-02-17T13:00:24;99540;;;16.52;94.05
44127;BME280;29786;50.798;7.302;2023-02-17T13:05:27;99550;;;16.31;91.1
44127;BME280;29786;50.798;7.302;2023-02-17T13:09:50;99540;;;16.29;89.65
44127;BME280;29786;50.798;7.302;2023-02-17T13:14:27;99520;;;16.82;83.95
44127;BME280;29786;50.798;7.302;2023-02-17T13:19:28;99530;;;16.93;82.51
44127;BME280;29786;50.798;7.302;2023-02-17T13:20:23;99530;;;16.67;83.93
44127;BME280;29786;50.798;7.302;2023-02-17T13:20:39;99510;;;14.58;100
44127;BME280;29786;50.798;7.302;2023-02-17T13:21:30;99650;;;14.68;100
44127;BME280;29786;50.798;7.302;2023-02-17T13:23:28;99510;;;17.76;76.17
44127;BME280;29786;50.798;7.302;2023-02-17T13:27:30;99520;;;17.75;74.72
44127;BME280;29786;50.798;7.302;2023-02-17T13:31:25;99530;;;16.62;82.32
44127;BME280;29786;50.798;7.302;2023-02-17T13:35:32;99520;;;16.37;85.08
44127;BME280;29786;50.798;7.302;2023-02-17T13:40:31;99520;;;16.64;83.77
44127;BME280;29786;50.798;7.302;2023-02-17T13:40:59;99510;;;17.52;78.31
44127;BME280;29786;50.798;7.302;2023-02-17T13:44:27;99510;;;16.75;83.17
44127;BME280;29786;50.798;7.302;2023-02-17T13:49:25;99510;;;16.4;87.42
44127;BME280;29786;50.798;7.302;2023-02-17T13:53:35;99510;;;16.17;88.52
44127;BME280;29786;50.798;7.302;2023-02-17T13:58:21;99490;;;16.32;85.33
44127;BME280;29786;50.798;7.302;2023-02-17T14:03:25;99510;;;16.45;84.4
44127;BME280;29786;50.798;7.302;2023-02-17T14:07:19;99500;;;16.17;87.09
44127;BME280;29786;50.798;7.302;2023-02-17T14:11:24;99520;;;15.63;91.63
44127;BME280;29786;50.798;7.302;2023-02-17T14:16:32;99510;;;15.58;93.81
44127;BME280;29786;50.798;7.302;2023-02-17T14:19:20;99500;;;16.09;89.74
44127;BME280;29786;50.798;7.302;2023-02-17T14:24:26;99500;;;16.11;88.63
44127;BME280;29786;50.798;7.302;2023-02-17T14:29:22;99520;;;15.95;89.41
44127;BME280;29786;50.798;7.302;2023-02-17T14:34:32;99540;;;16.9;82.8
44127;BME280;29786;50.798;7.302;2023-02-17T14:37:23;99560;;;16.29;87.1
44127;BME280;29786;50.798;7.302;2023-02-17T14:42:21;99550;;;15.24;96.04
44127;BME280;29786;50.798;7.302;2023-02-17T14:47:21;99560;;;14.88;99.51
44127;BME280;29786;50.798;7.302;2023-02-17T14:52:23;99570;;;14.82;99.58
44127;BME280;29786;50.798;7.302;2023-02-17T14:56:25;99560;;;14.63;100
44127;BME280;29786;50.798;7.302;2023-02-17T15:01:23;99570;;;14.74;97.64
44127;BME280;29786;50.798;7.302;2023-02-17T15:06:24;99560;;;14.74;96.52
44127;BME280;29786;50.798;7.302;2023-02-17T15:10:26;99550;;;14.63;98.06
44127;BME280;29786;50.798;7.302;2023-02-17T15:14:21;99580;;;14.49;100
44127;BME280;29786;50.798;7.302;2023-02-17T15:18:19;99560;;;14.51;100
44127;BME280;29786;50.798;7.302;2023-02-17T15:18:57;99560;;;14.48;100
44127;BME280;29786;50.798;7.302;2023-02-17T15:19:34;99490;;;17;81.31
44127;BME280;29786;50.798;7.302;2023-02-17T15:20:11;99520;;;17.62;78.08
44127;BME280;29786;50.798;7.302;2023-02-17T15:22:27;99550;;;14.28;100
44127;BME280;29786;50.798;7.302;2023-02-17T15:26:22;99540;;;14.24;100
44127;BME280;29786;50.798;7.302;2023-02-17T15:30:25;99610;;;14.17;100
44127;BME280;29786;50.798;7.302;2023-02-17T15:34:21;99570;;;14.12;100
44127;BME280;29786;50.798;7.302;2023-02-17T15:39:20;99570;;;14.07;100
44127;BME280;29786;50.798;7.302;2023-02-17T15:39:57;99560;;;14.33;100
44127;BME280;29786;50.798;7.302;2023-02-17T15:43:20;99560;;;13.99;100
44127;BME280;29786;50.798;7.302;2023-02-17T15:43:56;99570;;;14.04;100
44127;BME280;29786;50.798;7.302;2023-02-17T15:47:22;99580;;;13.89;100
44127;BME280;29786;50.798;7.302;2023-02-17T15:52:23;99590;;;13.8;100
44127;BME280;29786;50.798;7.302;2023-02-17T15:57:24;99610;;;13.7;100
44127;BME280;29786;50.798;7.302;2023-02-17T16:01:23;99600;;;13.64;100
44127;BME280;29786;50.798;7.302;2023-02-17T16:06:19;99610;;;13.44;100
44127;BME280;29786;50.798;7.302;2023-02-17T16:11:20;99600;;;13.34;100
44127;BME280;29786;50.798;7.302;2023-02-17T16:11:57;99540;;;13.77;100
44127;BME280;29786;50.798;7.302;2023-02-17T16:15:21;99630;;;13.17;100
44127;BME280;29786;50.798;7.302;2023-02-17T16:15:57;99610;;;13.27;100
44127;BME280;29786;50.798;7.302;2023-02-17T16:20:26;99640;;;13.02;100
44127;BME280;29786;50.798;7.302;2023-02-17T16:24:19;99650;;;12.91;100
44127;BME280;29786;50.798;7.302;2023-02-17T16:29:20;99650;;;12.81;100
44127;BME280;29786;50.798;7.302;2023-02-17T16:33:19;99650;;;12.76;100
44127;BME280;29786;50.798;7.302;2023-02-17T16:38:20;99680;;;12.68;100
44127;BME280;29786;50.798;7.302;2023-02-17T16:43:21;99660;;;12.61;100
44127;BME280;29786;50.798;7.302;2023-02-17T16:43:57;99550;;;12.61;100
44127;BME280;29786;50.798;7.302;2023-02-17T16:47:19;99670;;;12.54;100
44127;BME280;29786;50.798;7.302;2023-02-17T16:47:57;99690;;;12.59;100
44127;BME280;29786;50.798;7.302;2023-02-17T16:52:25;99710;;;12.26;100
44127;BME280;29786;50.798;7.302;2023-02-17T16:56:33;99710;;;12.08;100
44127;BME280;29786;50.798;7.302;2023-02-17T17:01:24;99730;;;11.66;100
44127;BME280;29786;50.798;7.302;2023-02-17T17:05:19;99760;;;11.09;100
44127;BME280;29786;50.798;7.302;2023-02-17T17:10:21;99770;;;10.88;100
44127;BME280;29786;50.798;7.302;2023-02-17T17:15:20;99740;;;10.63;100
44127;BME280;29786;50.798;7.302;2023-02-17T17:15:57;99610;;;11.95;100
44127;BME280;29786;50.798;7.302;2023-02-17T17:19:19;99760;;;10.5;100
44127;BME280;29786;50.798;7.302;2023-02-17T17:24:20;99760;;;10.58;100
44127;BME280;29786;50.798;7.302;2023-02-17T17:29:25;99790;;;10.64;100
44127;BME280;29786;50.798;7.302;2023-02-17T17:33:20;99800;;;10.58;100
44127;BME280;29786;50.798;7.302;2023-02-17T17:33:57;99800;;;10.61;100
44127;BME280;29786;50.798;7.302;2023-02-17T17:34:34;99780;;;10.57;100
44127;BME280;29786;50.798;7.302;2023-02-17T17:35:12;99580;;;14.39;100
44127;BME280;29786;50.798;7.302;2023-02-17T17:37:27;99790;;;10.55;100
44127;BME280;29786;50.798;7.302;2023-02-17T17:40:21;99800;;;10.56;100
44127;BME280;29786;50.798;7.302;2023-02-17T17:45:21;99800;;;10.66;100
44127;BME280;29786;50.798;7.302;2023-02-17T17:50:22;99790;;;10.79;100
44127;BME280;29786;50.798;7.302;2023-02-17T17:55:22;99810;;;10.81;100
44127;BME280;29786;50.798;7.302;2023-02-17T18:00:23;99810;;;10.75;100
44127;BME280;29786;50.798;7.302;2023-02-17T18:05:24;99820;;;10.63;100
44127;BME280;29786;50.798;7.302;2023-02-17T18:10:24;99830;;;10.59;100
44127;BME280;29786;50.798;7.302;2023-02-17T18:15:33;99830;;;10.61;100
44127;BME280;29786;50.798;7.302;2023-02-17T18:18:22;99830;;;10.58;100
44127;BME280;29786;50.798;7.302;2023-02-17T18:23:23;99840;;;10.63;100
44127;BME280;29786;50.798;7.302;2023-02-17T18:28:24;99840;;;10.65;100
44127;BME280;29786;50.798;7.302;2023-02-17T18:32:19;99850;;;10.67;100
44127;BME280;29786;50.798;7.302;2023-02-17T18:37:20;99850;;;10.72;100
44127;BME280;29786;50.798;7.302;2023-02-17T18:37:57;99850;;;10.7;100
44127;BME280;29786;50.798;7.302;2023-02-17T18:38:34;99800;;;10.56;100
44127;BME280;29786;50.798;7.302;2023-02-17T18:39:11;99790;;;10.57;100
44127;BME280;29786;50.798;7.302;2023-02-17T18:41:32;99870;;;10.71;100
44127;BME280;29786;50.798;7.302;2023-02-17T18:44:20;99850;;;10.73;100
44127;BME280;29786;50.798;7.302;2023-02-17T18:49:20;99860;;;10.79;100
44127;BME280;29786;50.798;7.302;2023-02-17T18:54:21;99870;;;10.78;100
44127;BME280;29786;50.798;7.302;2023-02-17T18:58:20;99880;;;10.74;100
44127;BME280;29786;50.798;7.302;2023-02-17T19:03:22;99870;;;10.72;100
44127;BME280;29786;50.798;7.302;2023-02-17T19:08:26;99870;;;10.8;100
44127;BME280;29786;50.798;7.302;2023-02-17T19:11:20;99880;;;10.76;100
44127;BME280;29786;50.798;7.302;2023-02-17T19:16:21;99890;;;10.78;100
44127;BME280;29786;50.798;7.302;2023-02-17T19:21:20;99890;;;10.74;100
44127;BME280;29786;50.798;7.302;2023-02-17T19:25:19;99900;;;10.74;100
44127;BME280;29786;50.798;7.302;2023-02-17T19:30:20;99890;;;10.77;100
44127;BME280;29786;50.798;7.302;2023-02-17T19:34:19;99910;;;10.72;100
44127;BME280;29786;50.798;7.302;2023-02-17T19:34:56;99860;;;10.71;100
44127;BME280;29786;50.798;7.302;2023-02-17T19:39:29;99900;;;10.71;100
44127;BME280;29786;50.798;7.302;2023-02-17T19:42:21;99910;;;10.73;100
44127;BME280;29786;50.798;7.302;2023-02-17T19:47:22;99920;;;10.68;100
44127;BME280;29786;50.798;7.302;2023-02-17T19:52:23;99910;;;10.67;100
44127;BME280;29786;50.798;7.302;2023-02-17T19:57:23;99920;;;10.62;100
44127;BME280;29786;50.798;7.302;2023-02-17T20:01:19;99920;;;10.62;100
44127;BME280;29786;50.798;7.302;2023-02-17T20:06:25;99920;;;10.59;100
44127;BME280;29786;50.798;7.302;2023-02-17T20:10:18;99930;;;10.53;100
44127;BME280;29786;50.798;7.302;2023-02-17T20:15:19;99940;;;10.48;100
44127;BME280;29786;50.798;7.302;2023-02-17T20:19:18;99940;;;10.45;100
44127;BME280;29786;50.798;7.302;2023-02-17T20:24:19;99940;;;10.42;100
44127;BME280;29786;50.798;7.302;2023-02-17T20:29:23;99940;;;10.43;100
44127;BME280;29786;50.798;7.302;2023-02-17T20:33:18;99940;;;10.38;100
44127;BME280;29786;50.798;7.302;2023-02-17T20:38:19;99940;;;10.35;100
44127;BME280;29786;50.798;7.302;2023-02-17T20:38:56;99830;;;10.25;100
44127;BME280;29786;50.798;7.302;2023-02-17T20:42:22;99940;;;10.36;100
44127;BME280;29786;50.798;7.302;2023-02-17T20:47:23;99950;;;10.34;100
44127;BME280;29786;50.798;7.302;2023-02-17T20:52:24;99930;;;10.33;100
44127;BME280;29786;50.798;7.302;2023-02-17T20:57:29;99940;;;10.34;100
44127;BME280;29786;50.798;7.302;2023-02-17T21:01:23;99950;;;10.31;100
44127;BME280;29786;50.798;7.302;2023-02-17T21:05:19;99930;;;10.28;100
44127;BME280;29786;50.798;7.302;2023-02-17T21:10:20;99940;;;10.3;100
44127;BME280;29786;50.798;7.302;2023-02-17T21:10:56;99850;;;9.85;100
44127;BME280;29786;50.798;7.302;2023-02-17T21:14:18;99940;;;10.3;100
44127;BME280;29786;50.798;7.302;2023-02-17T21:19:19;99950;;;10.37;100
44127;BME280;29786;50.798;7.302;2023-02-17T21:24:24;99960;;;10.36;100
44127;BME280;29786;50.798;7.302;2023-02-17T21:28:23;99950;;;10.33;100
44127;BME280;29786;50.798;7.302;2023-02-17T21:33:23;99960;;;10.33;100
44127;BME280;29786;50.798;7.302;2023-02-17T21:37:18;99970;;;10.33;100
44127;BME280;29786;50.798;7.302;2023-02-17T21:42:27;99950;;;10.3;100
44127;BME280;29786;50.798;7.302;2023-02-17T21:46:26;99960;;;10.31;100
44127;BME280;29786;50.798;7.302;2023-02-17T21:50:21;99960;;;10.25;100
44127;BME280;29786;50.798;7.302;2023-02-17T21:55:26;99950;;;10.22;100
44127;BME280;29786;50.798;7.302;2023-02-17T21:58:19;99960;;;10.21;100
44127;BME280;29786;50.798;7.302;2023-02-17T22:03:20;99950;;;10.16;100
44127;BME280;29786;50.798;7.302;2023-02-17T22:08:20;99950;;;10.16;100
44127;BME280;29786;50.798;7.302;2023-02-17T22:13:21;99950;;;10.18;100
44127;BME280;29786;50.798;7.302;2023-02-17T22:17:20;99960;;;10.21;100
44127;BME280;29786;50.798;7.302;2023-02-17T22:21:19;99950;;;10.17;100
44127;BME280;29786;50.798;7.302;2023-02-17T22:26:21;99960;;;10.14;100
44127;BME280;29786;50.798;7.302;2023-02-17T22:31:22;99960;;;10.21;100